Weather observations for the past three days for
Dubuque Regional Airport
Metric (Imperial)
Date Time (cdt) Wind (kph) Vis. (km) Weather Sky Cond. Temperature (ºC) Relative Humidity Wind Chill (°C) Heat Index (°C) Pressure Precipitation (cm)
Air Dwpt 6 hour altimeter (cm) sea level (mb) 1 hr 3 hr 6 hr
Max. Min.
04 06:53 S 11 16.09 Fair CLR 22.8 21.1 25 22.8 90% 75.95 1011.8
04 05:53 S 13 16.09 A Few Clouds FEW110 23.3 21.7 91% 75.95 1011.6
04 04:53 SW 9 16.09 Fair CLR 22.8 21.7 94% 75.97 1011.9
04 03:53 S 9 16.09 Fair CLR 23.3 22.2 94% 75.97 1011.7
04 02:53 S 15 16.09 Fair CLR 24.4 22.8 91% 24 75.9 1011.0
04 01:53 SW 13 16.09 A Few Clouds FEW120 25 22.8 88% 26 75.95 1011.5
04 00:53 S 13 16.09 Fair CLR 25 23.3 29.4 25 90% 26 76 1012.2
03 23:53 S 11 16.09 Fair CLR 25.6 23.3 87% 27 75.97 1012.1
03 22:53 S 9 16.09 Fair CLR 26.1 23.3 85% 28 76 1012.2
03 21:53 S 13 16.09 Fair CLR 26.7 23.9 85% 29 76 1012.3
03 20:53 S 17 16.09 Fair CLR 27.2 23.9 82% 30 75.95 1011.6
03 19:53 SE 11 16.09 Fair CLR 28.3 23.9 77% 32 75.92 1011.3
03 18:53 S 6 16.09 Fair CLR 29.4 25 32.8 29.4 77% 35 75.92 1011.1
03 17:53 Calm 16.09 Fair CLR 30.6 24.4 70% 36 75.9 1010.9
03 16:53 S 13 16.09 Fair CLR 30 23.9 70% 35 75.79 1009.7
03 15:53 S 13 16.09 Fair CLR 32.2 24.4 63% 39 75.95 1011.6
03 14:53 S 19 16.09 Fair CLR 31.1 23.9 66% 37 76 1012.1
03 13:53 S 13 16.09 Fair CLR 30.6 24.4 70% 36 76 1012.3
03 12:53 SE 13 16.09 Fair CLR 29.4 23.3 29.4 23.3 70% 34 76.07 1013.2
03 11:53 SE 9 16.09 Fair CLR 27.8 22.2 72% 30 76.1 1013.5
03 10:53 Vrbl 7 16.09 A Few Clouds FEW100 26.7 21.7 74% 29 76.07 1013.5
03 09:53 NE 13 16.09 Mostly Cloudy FEW008 BKN100 23.9 21.7 88% 24 76.12 1014.0
03 08:53 NE 7 16.09 Light Rain FEW022 BKN090 BKN120 25 22.2 85% 26 76.12 1014.1
03 07:53 NW 20 G 33 16.09 Light Rain OVC095 23.9 22.2 90% 23 76.12 1014.2
03 06:53 S 11 16.09 Partly Cloudy SCT110 23.3 21.7 25 23.3 91% 76 1012.3
03 05:53 S 11 16.09 Partly Cloudy SCT120 23.3 21.7 91% 76 1012.3
03 04:53 S 11 16.09 Overcast OVC095 23.9 22.2 90% 23 76 1012.2
03 03:53 S 9 14.48 Partly Cloudy FEW090 SCT120 23.9 22.2 90% 23 76 1012.2
03 02:53 S 15 16.09 A Few Clouds FEW090 25 22.8 88% 26 75.97 1011.9
03 01:53 S 9 14.48 Fair CLR 24.4 22.8 91% 24 76 1012.2
03 00:53 S 7 14.48 Fair CLR 25 23.3 28.9 24.4 90% 26 76.02 1012.4 0.05
02 23:53 Calm 14.48 Partly Cloudy SCT120 25.6 23.9 90% 27 76 1012.3
02 22:53 SE 6 16.09 Light Rain FEW055 SCT080 BKN120 26.1 22.8 82% 28 76.02 1012.6 0.05
02 21:53 Calm 14.48 Partly Cloudy SCT110 25.6 23.3 87% 27 76.05 1012.9
02 20:53 S 7 16.09 A Few Clouds FEW120 25.6 23.3 87% 27 75.97 1012.2
02 19:53 Calm 16.09 Fair CLR 27.2 23.9 82% 30 75.95 1011.6
02 18:53 Calm 16.09 Fair CLR 28.9 24.4 31.7 28.9 77% 34 75.97 1012.0
02 17:53 S 6 16.09 Fair CLR 29.4 23.9 72% 34 75.97 1011.8
02 16:53 Calm 16.09 Fair CLR 29.4 24.4 75% 35 75.97 1012.1
02 15:53 W 9 16.09 Partly Cloudy SCT110 31.7 22.2 57% 36 76.05 1012.8
02 14:53 W 7 16.09 A Few Clouds FEW110 31.1 23.3 63% 36 76.05 1013.0
02 13:53 SW 13 16.09 Fair CLR 31.7 22.8 59% 36 76.07 1013.2
02 12:53 SW 15 16.09 Fair CLR 30.6 22.8 31.1 21.7 63% 35 76.07 1013.4
02 11:53 S 13 16.09 Fair CLR 30 22.2 63% 33 76.1 1013.8
02 10:53 SW 7 16.09 Fair CLR 28.3 22.2 70% 31 76.12 1013.9
02 09:53 SW 11 16.09 Fair CLR 26.7 21.7 74% 29 76.1 1013.5
02 08:53 S 9 16.09 Fair CLR 25 21.1 79% 26 76.07 1013.5
02 07:53 S 7 16.09 A Few Clouds FEW100 23.9 20.6 82% 24 76.1 1013.9
02 06:53 Calm 14.48 A Few Clouds FEW100 22.2 20 23.3 21.7 87% 76.12 1014.0
02 05:53 S 9 16.09 Mostly Cloudy BKN090 23.3 19.4 79% 76.07 1013.4
02 04:53 S 11 16.09 Partly Cloudy SCT090 22.2 19.4 84% 76.05 1012.9
02 03:53 S 11 16.09 Partly Cloudy SCT100 22.2 20 87% 76.07 1013.3
02 02:53 S 9 16.09 Partly Cloudy SCT100 22.2 20 87% 76.05 1013.0
02 01:53 S 11 16.09 Fair CLR 22.8 20.6 87% 76.05 1012.8
02 00:53 S 11 16.09 Fair CLR 23.3 21.1 30 23.3 88% 76.07 1013.2
01 23:53 S 13 16.09 Fair CLR 23.3 21.7 91% 76.07 1013.2
01 22:53 S 9 16.09 Fair CLR 23.9 22.2 90% 23 76.07 1013.3
01 21:53 S 7 16.09 Fair CLR 25 22.8 88% 26 76.07 1013.3
01 20:53 S 7 16.09 Fair CLR 26.1 23.3 85% 28 76.05 1013.2
01 19:53 S 9 16.09 Fair CLR 27.2 24.4 85% 31 76.02 1012.9
01 18:53 S 6 16.09 Fair CLR 30 25.6 32.8 30 77% 37 76.02 1012.9
01 17:53 S 11 16.09 Fair CLR 31.7 25 68% 39 76.02 1012.8
01 16:53 S 9 16.09 Fair CLR 32.2 25 66% 39 76.05 1012.8
01 15:53 SW 7 16.09 Fair CLR 32.2 25 66% 39 76.07 1013.3
01 14:53 SW 7 16.09 Fair CLR 31.7 25 68% 39 76.1 1013.6
01 13:53 SW 9 16.09 Fair CLR 31.7 25 68% 39 76.12 1013.9
01 12:53 SW 13 16.09 Fair CLR 31.1 23.3 31.1 21.1 63% 36 76.15 1014.2
01 11:53 SW 9 16.09 Fair CLR 30 23.9 70% 35 76.17 1014.5
01 10:53 Calm 16.09 Fair CLR 28.9 24.4 77% 34 76.17 1014.6
01 09:53 Calm 11.27 Fair CLR 25.6 24.4 93% 27 76.15 1014.4
01 08:53 SW 11 0.40 Fog VV001 23.9 23.3 96% 23 76.17 1014.9
Date Time (cdt) Wind (kph) Vis. (km) Weather Sky Cond. Air Dwpt Max. Min. Relative Humidity Wind Chill (°C) Heat Index (°C) altimeter (cm) sea level (mb) 1 hr 3 hr 6 hr
6 hour
Temperature (ºC) Pressure Precipitation (cm)